createdAt,value
2022-07-29T00:01:45.992Z,101602.00
2022-07-29T00:04:13.300Z,101598.00
2022-07-29T00:06:40.294Z,101605.00
2022-07-29T00:09:06.994Z,101603.00
2022-07-29T00:11:33.713Z,101605.00
2022-07-29T00:14:00.214Z,101609.00
2022-07-29T00:16:26.719Z,101608.00
2022-07-29T00:18:53.418Z,101615.00
2022-07-29T00:21:20.054Z,101607.00
2022-07-29T00:23:46.533Z,101604.00
2022-07-29T00:26:13.079Z,101605.00
2022-07-29T00:28:39.627Z,101608.00
2022-07-29T00:31:07.088Z,101601.00
2022-07-29T00:33:33.637Z,101599.00
2022-07-29T00:36:00.233Z,101591.00
2022-07-29T00:38:26.742Z,101593.00
2022-07-29T00:40:53.505Z,101589.00
2022-07-29T00:43:19.997Z,101584.00
2022-07-29T00:45:46.987Z,101583.00
2022-07-29T00:48:13.640Z,101586.00
2022-07-29T00:50:40.589Z,101581.00
2022-07-29T00:53:08.846Z,101588.00
2022-07-29T00:55:35.884Z,101583.00
2022-07-29T00:58:02.567Z,101578.00
2022-07-29T01:00:30.316Z,101587.00
2022-07-29T01:02:57.064Z,101587.00
2022-07-29T01:05:49.828Z,101577.00
2022-07-29T01:08:15.087Z,101582.00
2022-07-29T01:10:42.968Z,101576.00
2022-07-29T01:13:10.323Z,101578.00
2022-07-29T01:15:48.920Z,101577.00
2022-07-29T01:18:31.342Z,101571.00
2022-07-29T01:21:26.880Z,101575.00
2022-07-29T01:24:12.502Z,101571.00
2022-07-29T01:27:15.698Z,101560.00
2022-07-29T01:29:56.240Z,101551.00
2022-07-29T01:32:29.470Z,101550.00
2022-07-29T01:35:05.289Z,101547.00
2022-07-29T01:37:47.778Z,101545.00
2022-07-29T01:40:21.186Z,101538.00
2022-07-29T01:42:53.251Z,101529.00
2022-07-29T01:45:31.821Z,101510.00
2022-07-29T01:48:07.494Z,101510.00
2022-07-29T01:50:36.749Z,101503.00
2022-07-29T01:53:09.981Z,101498.00
2022-07-29T01:55:41.580Z,101495.00
2022-07-29T01:58:09.357Z,101492.00
2022-07-29T02:00:37.134Z,101486.00
2022-07-29T02:03:08.249Z,101488.00
2022-07-29T02:05:36.705Z,101481.00
2022-07-29T02:08:04.435Z,101487.00
2022-07-29T02:10:33.576Z,101478.00
2022-07-29T02:13:01.909Z,101485.00
2022-07-29T02:15:31.623Z,101484.00
2022-07-29T02:18:05.916Z,101488.00
2022-07-29T02:20:33.007Z,101479.00
2022-07-29T02:23:01.502Z,101493.00
2022-07-29T02:25:36.878Z,101490.00
2022-07-29T02:28:05.274Z,101491.00
2022-07-29T02:30:33.469Z,101497.00
2022-07-29T02:33:00.502Z,101494.00
2022-07-29T02:35:27.716Z,101505.00
2022-07-29T02:38:20.231Z,101501.00
2022-07-29T02:40:46.993Z,101494.00
2022-07-29T02:43:13.632Z,101499.00
2022-07-29T02:45:40.578Z,101497.00
2022-07-29T02:48:14.301Z,101494.00
2022-07-29T02:50:49.656Z,101495.00
2022-07-29T02:53:20.933Z,101502.00
2022-07-29T02:55:52.519Z,101507.00
2022-07-29T02:58:22.105Z,101498.00
2022-07-29T03:00:51.580Z,101488.00
2022-07-29T03:03:19.828Z,101494.00
2022-07-29T03:05:46.849Z,101496.00
2022-07-29T03:08:15.642Z,101492.00
2022-07-29T03:10:45.558Z,101490.00
2022-07-29T03:13:14.054Z,101485.00
2022-07-29T03:15:40.890Z,101486.00
2022-07-29T03:18:07.876Z,101501.00
2022-07-29T03:20:34.622Z,101488.00
2022-07-29T03:23:01.252Z,101486.00
2022-07-29T03:25:28.328Z,101478.00
2022-07-29T03:27:54.848Z,101476.00
2022-07-29T03:30:22.360Z,101479.00
2022-07-29T03:32:52.208Z,101482.00
2022-07-29T03:35:20.542Z,101484.00
2022-07-29T03:37:47.090Z,101479.00
2022-07-29T03:40:19.326Z,101469.00
2022-07-29T03:42:47.801Z,101463.00
2022-07-29T03:45:18.680Z,101463.00
2022-07-29T03:47:54.744Z,101460.00
2022-07-29T03:50:24.231Z,101457.00
2022-07-29T03:52:51.074Z,101457.00
2022-07-29T03:55:17.967Z,101458.00
2022-07-29T03:57:46.002Z,101468.00
2022-07-29T04:00:13.107Z,101461.00
2022-07-29T04:02:41.854Z,101454.00
2022-07-29T04:05:13.414Z,101465.00
2022-07-29T04:07:40.233Z,101460.00
2022-07-29T04:10:07.587Z,101461.00
2022-07-29T04:12:34.084Z,101461.00
2022-07-29T04:15:00.555Z,101471.00
2022-07-29T04:17:27.039Z,101463.00
2022-07-29T04:19:53.556Z,101456.00
2022-07-29T04:22:20.109Z,101469.00
2022-07-29T04:24:46.585Z,101469.00
2022-07-29T04:27:13.591Z,101481.00
2022-07-29T04:29:56.530Z,101479.00
2022-07-29T04:32:23.817Z,101482.00
2022-07-29T04:34:50.346Z,101476.00
2022-07-29T04:37:16.850Z,101476.00
2022-07-29T04:39:43.323Z,101478.00
2022-07-29T04:42:09.891Z,101478.00
2022-07-29T04:44:39.490Z,101471.00
2022-07-29T04:47:09.178Z,101472.00
2022-07-29T04:49:38.953Z,101476.00
2022-07-29T04:52:06.166Z,101476.00
2022-07-29T04:54:33.243Z,101479.00
2022-07-29T04:56:59.808Z,101475.00
2022-07-29T04:59:27.652Z,101481.00
2022-07-29T05:01:54.287Z,101477.00
2022-07-29T05:04:21.149Z,101473.00
2022-07-29T05:06:47.960Z,101467.00
2022-07-29T05:09:14.500Z,101463.00
2022-07-29T05:11:40.958Z,101463.00
2022-07-29T05:14:07.647Z,101462.00
2022-07-29T05:16:36.723Z,101470.00
2022-07-29T05:19:03.944Z,101464.00
2022-07-29T05:21:31.496Z,101468.00
2022-07-29T05:23:57.972Z,101457.00
2022-07-29T05:26:24.416Z,101463.00
2022-07-29T05:28:50.913Z,101455.00
2022-07-29T05:31:17.658Z,101461.00
2022-07-29T05:33:44.285Z,101462.00
2022-07-29T05:36:10.754Z,101463.00
2022-07-29T05:38:37.470Z,101461.00
2022-07-29T05:41:05.374Z,101462.00
2022-07-29T05:43:31.858Z,101456.00
2022-07-29T05:45:58.949Z,101458.00
2022-07-29T05:48:25.547Z,101458.00
2022-07-29T05:50:52.226Z,101461.00
2022-07-29T05:53:19.638Z,101464.00
2022-07-29T05:55:47.525Z,101470.00
2022-07-29T05:58:13.997Z,101470.00
2022-07-29T06:00:40.893Z,101463.00
2022-07-29T06:03:07.368Z,101465.00
2022-07-29T06:05:34.052Z,101469.00
2022-07-29T06:08:00.643Z,101470.00
2022-07-29T06:10:27.818Z,101466.00
2022-07-29T06:12:54.598Z,101468.00
2022-07-29T06:15:21.350Z,101469.00
2022-07-29T06:18:00.743Z,101467.00
2022-07-29T06:20:31.225Z,101461.00
2022-07-29T06:22:58.273Z,101464.00
2022-07-29T06:25:24.769Z,101463.00
2022-07-29T06:27:51.237Z,101462.00
2022-07-29T06:30:17.751Z,101457.00
2022-07-29T06:32:44.211Z,101471.00
2022-07-29T06:35:42.103Z,101469.00
2022-07-29T06:37:59.539Z,101467.00
2022-07-29T06:40:45.232Z,101464.00
2022-07-29T06:43:11.802Z,101463.00
2022-07-29T06:45:42.193Z,101471.00
2022-07-29T06:48:08.886Z,101455.00
2022-07-29T06:50:36.635Z,101464.00
2022-07-29T06:53:03.656Z,101456.00
2022-07-29T06:55:30.143Z,101464.00
2022-07-29T06:57:56.621Z,101468.00
2022-07-29T07:00:23.158Z,101472.00
2022-07-29T07:02:49.828Z,101472.00
2022-07-29T07:05:16.566Z,101479.00
2022-07-29T07:07:43.045Z,101483.00
2022-07-29T07:10:09.662Z,101473.00
2022-07-29T07:12:36.281Z,101478.00
2022-07-29T07:15:02.806Z,101480.00
2022-07-29T07:17:29.443Z,101461.00
2022-07-29T07:19:55.936Z,101456.00
2022-07-29T07:22:22.449Z,101465.00
2022-07-29T07:24:48.908Z,101460.00
2022-07-29T07:27:15.554Z,101466.00
2022-07-29T07:29:44.104Z,101475.00
2022-07-29T07:32:10.963Z,101457.00
2022-07-29T07:34:38.902Z,101463.00
2022-07-29T07:37:06.056Z,101473.00
2022-07-29T07:39:32.663Z,101463.00
2022-07-29T07:41:59.179Z,101457.00
2022-07-29T07:44:25.652Z,101447.00
2022-07-29T07:46:52.596Z,101456.00
2022-07-29T07:49:19.697Z,101462.00
2022-07-29T07:51:50.515Z,101462.00
2022-07-29T07:54:18.641Z,101459.00
2022-07-29T07:56:50.347Z,101460.00
2022-07-29T07:59:19.731Z,101466.00
2022-07-29T08:01:47.992Z,101461.00
2022-07-29T08:04:27.116Z,101469.00
2022-07-29T08:06:55.629Z,101465.00
2022-07-29T08:09:29.433Z,101468.00
2022-07-29T08:11:57.200Z,101459.00
2022-07-29T08:14:23.651Z,101455.00
2022-07-29T08:16:50.383Z,101456.00
2022-07-29T08:19:16.955Z,101446.00
2022-07-29T08:21:45.937Z,101452.00
2022-07-29T08:24:30.879Z,101440.00
2022-07-29T08:26:57.351Z,101447.00
2022-07-29T08:29:23.823Z,101447.00
2022-07-29T08:31:50.546Z,101445.00
2022-07-29T08:34:17.511Z,101439.00
2022-07-29T08:36:44.130Z,101444.00
2022-07-29T08:39:10.693Z,101451.00
2022-07-29T08:41:37.625Z,101448.00
2022-07-29T08:44:04.453Z,101439.00
2022-07-29T08:46:31.073Z,101433.00
2022-07-29T08:48:57.635Z,101435.00
2022-07-29T08:51:26.308Z,101421.00
2022-07-29T08:53:52.897Z,101430.00
2022-07-29T08:56:20.424Z,101433.00
2022-07-29T08:58:51.636Z,101426.00
2022-07-29T09:01:23.569Z,101431.00
2022-07-29T09:04:06.907Z,101435.00
2022-07-29T09:06:37.664Z,101441.00
2022-07-29T09:09:05.145Z,101423.00
2022-07-29T09:11:33.297Z,101429.00
2022-07-29T09:13:59.766Z,101438.00
2022-07-29T09:16:50.900Z,101442.00
2022-07-29T09:19:24.039Z,101431.00
2022-07-29T09:21:59.886Z,101421.00
2022-07-29T09:24:48.327Z,101446.00
2022-07-29T09:27:21.827Z,101432.00
2022-07-29T09:29:56.051Z,101447.00
2022-07-29T09:32:23.260Z,101424.00
2022-07-29T09:34:49.866Z,101425.00
2022-07-29T09:37:29.609Z,101421.00
2022-07-29T09:39:56.286Z,101435.00
2022-07-29T09:42:30.504Z,101438.00
2022-07-29T09:44:57.126Z,101420.00
2022-07-29T09:47:26.834Z,101425.00
2022-07-29T09:49:59.443Z,101407.00
2022-07-29T09:52:30.422Z,101427.00
2022-07-29T09:55:08.012Z,101408.00
2022-07-29T09:57:34.563Z,101404.00
2022-07-29T10:00:09.911Z,101395.00
2022-07-29T10:02:38.566Z,101407.00
2022-07-29T10:05:17.116Z,101399.00
2022-07-29T10:07:53.216Z,101392.00
2022-07-29T10:10:32.293Z,101397.00
2022-07-29T10:13:06.398Z,101403.00
2022-07-29T10:15:42.032Z,101389.00
2022-07-29T10:18:11.085Z,101383.00
2022-07-29T10:20:38.570Z,101417.00
2022-07-29T10:23:05.769Z,101393.00
2022-07-29T10:25:32.388Z,101404.00
2022-07-29T10:27:59.369Z,101403.00
2022-07-29T10:30:27.207Z,101410.00
2022-07-29T10:33:41.998Z,101413.00
2022-07-29T10:36:26.394Z,101417.00
2022-07-29T10:39:06.142Z,101422.00
2022-07-29T10:42:03.541Z,101417.00
2022-07-29T10:44:30.719Z,101411.00
2022-07-29T10:46:57.685Z,101409.00
2022-07-29T10:49:27.783Z,101406.00
2022-07-29T10:52:10.872Z,101401.00
2022-07-29T10:54:38.219Z,101413.00
2022-07-29T10:57:17.355Z,101410.00
2022-07-29T10:59:46.572Z,101404.00
2022-07-29T11:02:41.942Z,101403.00
2022-07-29T11:05:15.752Z,101402.00
2022-07-29T11:08:16.199Z,101398.00
2022-07-29T11:10:47.832Z,101383.00
2022-07-29T11:13:42.661Z,101386.00
2022-07-29T11:16:09.212Z,101376.00
2022-07-29T11:18:37.878Z,101366.00
2022-07-29T11:21:54.340Z,101384.00
2022-07-29T11:24:28.942Z,101372.00
2022-07-29T11:27:21.226Z,101368.00
2022-07-29T11:29:54.134Z,101407.00
2022-07-29T11:32:22.789Z,101396.00
2022-07-29T11:35:17.548Z,101388.00
2022-07-29T11:38:27.970Z,101385.00
2022-07-29T11:44:13.060Z,101358.00
2022-07-29T11:46:50.070Z,101356.00
2022-07-29T11:49:31.797Z,101362.00
2022-07-29T11:52:02.539Z,101352.00
2022-07-29T11:54:58.202Z,101364.00
2022-07-29T12:00:22.882Z,101351.00
2022-07-29T12:02:51.736Z,101372.00
2022-07-29T12:05:35.790Z,101359.00
2022-07-29T12:08:40.405Z,101350.00
2022-07-29T12:11:17.010Z,101338.00
2022-07-29T12:13:43.695Z,101327.00
2022-07-29T12:16:14.747Z,101342.00
2022-07-29T12:18:41.405Z,101343.00
2022-07-29T12:21:09.210Z,101330.00
2022-07-29T12:23:39.040Z,101340.00
2022-07-29T12:26:07.728Z,101334.00
2022-07-29T12:28:39.294Z,101341.00
2022-07-29T12:31:06.008Z,101326.00
2022-07-29T12:33:36.089Z,101317.00
2022-07-29T12:36:10.480Z,101316.00
2022-07-29T12:38:41.505Z,101316.00
2022-07-29T12:41:08.207Z,101312.00
2022-07-29T12:43:34.669Z,101313.00
2022-07-29T12:46:13.944Z,101312.00
2022-07-29T12:48:42.703Z,101315.00
2022-07-29T12:51:11.166Z,101318.00
2022-07-29T12:53:38.555Z,101315.00
2022-07-29T12:56:20.610Z,101313.00
2022-07-29T12:58:52.684Z,101307.00
2022-07-29T13:01:21.136Z,101309.00
2022-07-29T13:04:01.228Z,101309.00
2022-07-29T13:06:45.905Z,101334.00
2022-07-29T13:09:20.735Z,101309.00
2022-07-29T13:11:52.050Z,101306.00
2022-07-29T13:14:35.720Z,101296.00
2022-07-29T13:17:09.528Z,101305.00
2022-07-29T13:19:42.043Z,101296.00
2022-07-29T13:22:10.215Z,101288.00
2022-07-29T13:24:50.838Z,101287.00
2022-07-29T13:27:28.511Z,101306.00
2022-07-29T13:30:00.475Z,101296.00
2022-07-29T13:32:29.175Z,101281.00
2022-07-29T13:35:01.226Z,101284.00
2022-07-29T13:37:33.851Z,101279.00
2022-07-29T13:40:00.427Z,101289.00
2022-07-29T13:42:27.313Z,101282.00
2022-07-29T13:44:53.885Z,101280.00
2022-07-29T13:47:20.864Z,101280.00
2022-07-29T13:49:47.398Z,101273.00
2022-07-29T13:52:14.418Z,101264.00
2022-07-29T13:54:42.536Z,101271.00
2022-07-29T13:57:11.740Z,101266.00
2022-07-29T13:59:39.295Z,101271.00
2022-07-29T14:02:06.672Z,101272.00
2022-07-29T14:04:34.508Z,101292.00
2022-07-29T14:07:03.794Z,101260.00
2022-07-29T14:09:40.934Z,101258.00
2022-07-29T14:12:08.736Z,101258.00
2022-07-29T14:14:36.490Z,101257.00
2022-07-29T14:17:04.315Z,101266.00
2022-07-29T14:19:33.032Z,101266.00
2022-07-29T14:22:00.376Z,101263.00
2022-07-29T14:24:28.603Z,101275.00
2022-07-29T14:26:55.995Z,101283.00
2022-07-29T14:29:22.578Z,101282.00
2022-07-29T14:31:49.435Z,101256.00
2022-07-29T14:34:16.515Z,101263.00
2022-07-29T14:36:43.167Z,101269.00
2022-07-29T14:39:09.829Z,101252.00
2022-07-29T14:41:36.369Z,101249.00
2022-07-29T14:44:02.891Z,101249.00
2022-07-29T14:46:29.478Z,101237.00
2022-07-29T14:48:56.226Z,101240.00
2022-07-29T14:51:22.796Z,101235.00
2022-07-29T14:53:49.357Z,101238.00
2022-07-29T14:56:36.022Z,101233.00
2022-07-29T14:59:02.613Z,101235.00
2022-07-29T15:01:30.047Z,101237.00
2022-07-29T15:03:59.682Z,101231.00
2022-07-29T15:06:27.390Z,101237.00
2022-07-29T15:08:54.100Z,101225.00
2022-07-29T15:11:20.858Z,101227.00
2022-07-29T15:13:47.357Z,101265.00
2022-07-29T15:16:13.869Z,101264.00
2022-07-29T15:18:40.627Z,101262.00
2022-07-29T15:21:07.946Z,101261.00
2022-07-29T15:23:37.271Z,101243.00
2022-07-29T15:26:05.171Z,101241.00
2022-07-29T15:28:31.712Z,101237.00
2022-07-29T15:30:58.296Z,101236.00
2022-07-29T15:33:24.865Z,101226.00
2022-07-29T15:35:51.325Z,101224.00
2022-07-29T15:38:18.313Z,101220.00
2022-07-29T15:40:45.601Z,101216.00
2022-07-29T15:43:12.552Z,101220.00
2022-07-29T15:45:41.761Z,101227.00
2022-07-29T15:48:09.807Z,101227.00
2022-07-29T15:50:41.493Z,101223.00
2022-07-29T15:53:08.183Z,101242.00
2022-07-29T15:55:34.750Z,101223.00
2022-07-29T15:58:01.381Z,101244.00
2022-07-29T16:00:27.959Z,101235.00
2022-07-29T16:02:54.499Z,101223.00
2022-07-29T16:05:21.350Z,101215.00
2022-07-29T16:07:47.822Z,101213.00
2022-07-29T16:10:14.548Z,101220.00
2022-07-29T16:12:41.038Z,101213.00
2022-07-29T16:15:10.464Z,101209.00
2022-07-29T16:17:37.998Z,101217.00
2022-07-29T16:20:05.787Z,101214.00
2022-07-29T16:22:32.340Z,101217.00
2022-07-29T16:24:59.111Z,101216.00
2022-07-29T16:27:37.588Z,101210.00
2022-07-29T16:30:05.960Z,101209.00
2022-07-29T16:32:32.448Z,101217.00
2022-07-29T16:34:59.082Z,101215.00
2022-07-29T16:37:25.881Z,101211.00
2022-07-29T16:39:55.448Z,101200.00
2022-07-29T16:42:44.247Z,101208.00
2022-07-29T16:45:08.998Z,101204.00
2022-07-29T16:47:36.043Z,101193.00
2022-07-29T16:50:02.633Z,101198.00
2022-07-29T16:52:29.316Z,101187.00
2022-07-29T16:54:56.188Z,101190.00
2022-07-29T16:57:22.699Z,101195.00
2022-07-29T16:59:51.100Z,101195.00
2022-07-29T17:02:17.758Z,101197.00
2022-07-29T17:04:44.383Z,101197.00
2022-07-29T17:07:10.985Z,101201.00
2022-07-29T17:09:37.522Z,101206.00
2022-07-29T17:12:04.406Z,101206.00
2022-07-29T17:14:31.460Z,101205.00
2022-07-29T17:17:02.046Z,101212.00
2022-07-29T17:19:32.103Z,101212.00
2022-07-29T17:22:07.065Z,101208.00
2022-07-29T17:24:36.017Z,101212.00
2022-07-29T17:27:02.857Z,101203.00
2022-07-29T17:29:29.324Z,101213.00
2022-07-29T17:31:55.849Z,101212.00
2022-07-29T17:34:22.675Z,101212.00
2022-07-29T17:36:49.385Z,101216.00
2022-07-29T17:39:16.067Z,101216.00
2022-07-29T17:41:44.987Z,101211.00
2022-07-29T17:44:11.459Z,101211.00
2022-07-29T17:46:38.055Z,101213.00
2022-07-29T17:49:04.688Z,101206.00
2022-07-29T17:51:31.432Z,101214.00
2022-07-29T17:53:58.333Z,101210.00
2022-07-29T17:56:25.596Z,101212.00
2022-07-29T17:58:52.103Z,101217.00
2022-07-29T18:01:20.987Z,101213.00
2022-07-29T18:03:47.974Z,101217.00
2022-07-29T18:06:14.535Z,101219.00
2022-07-29T18:08:41.064Z,101212.00
2022-07-29T18:11:07.748Z,101211.00
2022-07-29T18:13:34.219Z,101216.00
2022-07-29T18:16:01.066Z,101219.00
2022-07-29T18:18:27.754Z,101218.00
2022-07-29T18:20:54.621Z,101216.00
2022-07-29T18:23:21.295Z,101215.00
2022-07-29T18:25:47.914Z,101216.00
2022-07-29T18:28:14.484Z,101228.00
2022-07-29T18:30:41.615Z,101231.00
2022-07-29T18:33:22.827Z,101226.00
2022-07-29T18:35:51.841Z,101226.00
2022-07-29T18:38:21.869Z,101228.00
2022-07-29T18:40:48.638Z,101229.00
2022-07-29T18:43:15.158Z,101233.00
2022-07-29T18:45:42.493Z,101233.00
2022-07-29T18:48:13.173Z,101228.00
2022-07-29T18:50:41.383Z,101233.00
2022-07-29T18:53:08.320Z,101235.00
2022-07-29T18:55:35.027Z,101235.00
2022-07-29T18:58:01.748Z,101234.00
2022-07-29T19:00:28.289Z,101240.00
2022-07-29T19:02:55.587Z,101235.00
2022-07-29T19:05:23.094Z,101235.00
2022-07-29T19:07:49.599Z,101247.00
2022-07-29T19:10:16.095Z,101245.00
2022-07-29T19:12:42.571Z,101248.00
2022-07-29T19:15:10.820Z,101254.00
2022-07-29T19:17:38.567Z,101260.00
2022-07-29T19:20:06.242Z,101249.00
2022-07-29T19:22:33.876Z,101260.00
2022-07-29T19:25:00.638Z,101262.00
2022-07-29T19:27:27.174Z,101264.00
2022-07-29T19:29:56.648Z,101269.00
2022-07-29T19:32:28.223Z,101266.00
2022-07-29T19:35:16.584Z,101269.00
2022-07-29T19:37:43.643Z,101269.00
2022-07-29T19:40:12.096Z,101273.00
2022-07-29T19:42:38.692Z,101271.00
2022-07-29T19:45:05.668Z,101273.00
2022-07-29T19:47:32.234Z,101272.00
2022-07-29T19:50:00.478Z,101272.00
2022-07-29T19:52:28.070Z,101266.00
2022-07-29T19:54:54.613Z,101270.00
2022-07-29T19:57:21.159Z,101270.00
2022-07-29T19:59:47.659Z,101271.00
2022-07-29T20:02:14.422Z,101275.00
2022-07-29T20:04:42.864Z,101269.00
2022-07-29T20:07:09.464Z,101273.00
2022-07-29T20:09:35.969Z,101275.00
2022-07-29T20:12:04.430Z,101274.00
2022-07-29T20:14:30.896Z,101277.00
2022-07-29T20:16:57.414Z,101271.00
2022-07-29T20:19:23.997Z,101275.00
2022-07-29T20:21:51.639Z,101269.00
2022-07-29T20:24:21.777Z,101269.00
2022-07-29T20:26:48.655Z,101271.00
2022-07-29T20:29:16.211Z,101277.00
2022-07-29T20:31:46.043Z,101276.00
2022-07-29T20:34:20.057Z,101275.00
2022-07-29T20:36:48.619Z,101271.00
2022-07-29T20:39:15.176Z,101274.00
2022-07-29T20:41:41.745Z,101273.00
2022-07-29T20:44:08.333Z,101280.00
2022-07-29T20:46:35.078Z,101284.00
2022-07-29T20:49:05.270Z,101282.00
2022-07-29T20:51:31.807Z,101278.00
2022-07-29T20:54:09.993Z,101284.00
2022-07-29T20:56:37.554Z,101281.00
2022-07-29T20:59:04.433Z,101276.00
2022-07-29T21:01:30.934Z,101279.00
2022-07-29T21:03:57.432Z,101282.00
2022-07-29T21:06:24.034Z,101280.00
2022-07-29T21:08:50.520Z,101284.00
2022-07-29T21:11:17.278Z,101284.00
2022-07-29T21:13:47.678Z,101285.00
2022-07-29T21:16:14.914Z,101287.00
2022-07-29T21:18:43.990Z,101290.00
2022-07-29T21:21:10.531Z,101283.00
2022-07-29T21:23:37.062Z,101283.00
2022-07-29T21:26:03.959Z,101279.00
2022-07-29T21:28:36.661Z,101286.00
2022-07-29T21:31:06.761Z,101284.00
2022-07-29T21:33:33.658Z,101294.00
2022-07-29T21:36:26.711Z,101288.00
2022-07-29T21:38:47.534Z,101288.00
2022-07-29T21:41:15.470Z,101284.00
2022-07-29T21:43:42.548Z,101276.00
2022-07-29T21:46:09.318Z,101288.00
2022-07-29T21:48:35.937Z,101288.00
2022-07-29T21:51:02.459Z,101293.00
2022-07-29T21:53:29.005Z,101291.00
2022-07-29T21:55:57.412Z,101291.00
2022-07-29T21:58:24.613Z,101290.00
2022-07-29T22:00:51.925Z,101288.00
2022-07-29T22:03:18.418Z,101280.00
2022-07-29T22:05:47.493Z,101285.00
2022-07-29T22:08:14.008Z,101274.00
2022-07-29T22:10:40.472Z,101282.00
2022-07-29T22:13:07.254Z,101288.00
2022-07-29T22:15:33.711Z,101276.00
2022-07-29T22:18:00.326Z,101278.00
2022-07-29T22:20:27.159Z,101284.00
2022-07-29T22:22:54.006Z,101277.00
2022-07-29T22:25:20.873Z,101276.00
2022-07-29T22:27:47.319Z,101278.00
2022-07-29T22:30:14.319Z,101278.00
2022-07-29T22:32:41.565Z,101277.00
2022-07-29T22:35:08.431Z,101270.00
2022-07-29T22:37:35.009Z,101278.00
2022-07-29T22:40:01.635Z,101274.00
2022-07-29T22:42:28.225Z,101272.00
2022-07-29T22:44:54.746Z,101272.00
2022-07-29T22:47:46.537Z,101277.00
2022-07-29T22:50:09.760Z,101263.00
2022-07-29T22:52:36.288Z,101267.00
2022-07-29T22:55:04.849Z,101258.00
2022-07-29T22:57:31.441Z,101251.00
2022-07-29T22:59:58.279Z,101247.00
2022-07-29T23:02:24.784Z,101248.00
2022-07-29T23:04:51.253Z,101243.00
2022-07-29T23:07:18.306Z,101240.00
2022-07-29T23:09:44.836Z,101244.00
2022-07-29T23:12:11.323Z,101239.00
2022-07-29T23:14:37.943Z,101236.00
2022-07-29T23:17:05.307Z,101244.00
2022-07-29T23:19:32.058Z,101239.00
2022-07-29T23:21:58.675Z,101242.00
2022-07-29T23:24:25.133Z,101240.00
2022-07-29T23:26:51.640Z,101235.00
2022-07-29T23:29:18.112Z,101237.00
2022-07-29T23:31:47.988Z,101239.00
2022-07-29T23:34:14.982Z,101235.00
2022-07-29T23:36:42.329Z,101240.00
2022-07-29T23:39:11.338Z,101238.00
2022-07-29T23:41:38.099Z,101246.00
2022-07-29T23:44:05.046Z,101247.00
2022-07-29T23:46:32.057Z,101237.00
2022-07-29T23:48:58.643Z,101252.00
2022-07-29T23:51:25.158Z,101235.00
2022-07-29T23:53:53.861Z,101250.00
2022-07-29T23:56:21.057Z,101245.00
2022-07-29T23:58:47.875Z,101240.00
